Terminal Aerodrome Forecast
Issued by NWS

Home | Current Version | Previous Version | Text Only | Print | Product List | Glossary On
Versions: 1 2 3 4 5 6 7 8 9 10 11 12 13 14 15 16 17 18 19
000
FTUS43 KMQT 280500
TAFSAW
TAF
KSAW 280531Z 2806/2906 28007KT P6SM SCT050
     FM281000 26007KT P6SM BKN050
     FM281600 30009KT P6SM VCSH BKN030
      AMD LTD TO CLD VIS AND WIND TIL 281100=

USA.gov is the U.S. government's official web portal to all federal, state and local government web resources and services.